Almena, Wisconsin
Current Conditions -  °F | °C
As of 6:15 AM on Friday 28 Nov 2014 (Local Time) from KUBE Reporting Station
Light Snow Light Snow  
Wind Chill: -5°   Ceiling: 6000
Heat Index:   Visibility: 10mi
Dew Point:   Wind: 9mph
Humidity: 85%   Direction: 120°ESE
Pressure: 30.05"   Gusts: NA
Location:  45.42°N, 92.03°W
Report Text: KUBE 281215Z AUTO 12008KT 10SM -SN OVC060 M13/M15 A3005 RMK AO2
Loading
Personal Weather Stations






























Interactive Weather Map New forecast layout! Learn more

10-Day Weather Forecast

Advertisements
Track Severe Weather on mobile